Time;durP1;ratioP1;P1;durP2;ratioP2;P2;SDS_P1;SDS_P2;PMS_P1;PMS_P2;Temp;Humidity;BMP_temperature;BMP_pressure;BME280_temperature;BME280_humidity;BME280_pressure;Samples;Min_cycle;Max_cycle;Signal;HPM_P1;HPM_P2
2023/02/10 00:01:23;;;;;;;41.28;19.60;;;2.90;99.90;;;;;;5048714;28;20033;-42
2023/02/10 00:03:49;;;;;;;36.30;20.88;;;2.90;99.90;;;;;;5059003;28;20140;-43
2023/02/10 00:06:19;;;;;;;40.53;18.48;;;3.00;99.90;;;;;;5059592;28;20081;-43
2023/02/10 00:09:02;;;;;;;33.60;18.35;;;3.00;99.90;;;;;;5058938;28;20029;-43
2023/02/10 00:14:14;;;;;;;25.83;16.55;;;3.10;99.90;;;;;;5058953;28;20391;-43
2023/02/10 00:16:40;;;;;;;38.05;17.10;;;3.20;99.90;;;;;;5059015;28;20097;-43
2023/02/10 00:19:06;;;;;;;38.70;16.70;;;3.20;99.90;;;;;;5059102;28;20523;-43
2023/02/10 00:21:31;;;;;;;42.45;17.42;;;3.30;99.90;;;;;;5059578;28;20029;-43
2023/02/10 00:23:57;;;;;;;34.60;16.88;;;3.30;99.90;;;;;;5058237;28;20055;-44
2023/02/10 00:26:23;;;;;;;32.33;15.98;;;3.30;99.90;;;;;;5055215;28;20020;-43
2023/02/10 00:28:48;;;;;;;33.67;15.38;;;3.40;99.90;;;;;;5059729;28;20036;-44
2023/02/10 00:31:18;;;;;;;24.58;15.40;;;3.40;99.90;;;;;;5058582;28;20243;-43
2023/02/10 00:33:44;;;;;;;35.80;15.63;;;3.40;99.90;;;;;;5058840;28;20143;-43
2023/02/10 00:36:11;;;;;;;31.00;15.55;;;3.40;99.90;;;;;;5058912;28;20017;-44
2023/02/10 00:38:39;;;;;;;30.52;15.13;;;3.40;99.90;;;;;;5058201;28;20032;-43
2023/02/10 00:41:10;;;;;;;34.95;17.45;;;3.40;99.90;;;;;;5058014;28;20027;-43
2023/02/10 00:43:36;;;;;;;27.25;16.02;;;3.40;99.90;;;;;;5059361;28;20028;-43
2023/02/10 00:46:03;;;;;;;34.83;16.20;;;3.40;99.90;;;;;;5057157;28;20697;-43
2023/02/10 00:48:28;;;;;;;28.38;16.42;;;3.40;99.90;;;;;;5058728;28;20033;-43
2023/02/10 00:50:54;;;;;;;35.90;15.90;;;3.40;99.90;;;;;;5057749;28;20037;-43
2023/02/10 00:53:20;;;;;;;33.55;14.48;;;3.40;99.90;;;;;;5058443;28;20036;-43
2023/02/10 00:55:45;;;;;;;29.38;13.55;;;3.40;99.90;;;;;;5058351;28;20555;-42
2023/02/10 00:58:17;;;;;;;27.52;14.90;;;3.40;99.90;;;;;;5058497;28;20056;-42
2023/02/10 01:00:43;;;;;;;25.25;14.40;;;3.40;99.90;;;;;;5058170;28;20063;-42
2023/02/10 01:03:08;;;;;;;32.92;14.52;;;3.40;99.90;;;;;;5058264;28;20119;-42
2023/02/10 01:05:34;;;;;;;30.10;14.50;;;3.40;99.90;;;;;;5058683;28;20771;-42
2023/02/10 01:08:00;;;;;;;24.98;14.07;;;3.40;99.90;;;;;;5058499;28;20681;-43
2023/02/10 01:10:28;;;;;;;31.50;13.25;;;3.40;99.90;;;;;;5058672;28;20036;-43
2023/02/10 01:12:54;;;;;;;42.33;12.85;;;3.30;99.90;;;;;;5058558;28;20032;-43
2023/02/10 01:15:20;;;;;;;33.15;12.93;;;3.30;99.90;;;;;;5058872;28;20016;-43
2023/02/10 01:17:45;;;;;;;37.90;13.40;;;3.30;99.90;;;;;;5058638;28;20032;-43
2023/02/10 01:20:11;;;;;;;26.02;13.30;;;3.30;99.90;;;;;;5058178;28;20016;-43
2023/02/10 01:22:46;;;;;;;30.95;12.95;;;3.30;99.90;;;;;;5059119;28;20428;-43
2023/02/10 01:25:14;;;;;;;32.13;12.65;;;3.30;99.90;;;;;;5039520;28;20025;-43
2023/02/10 01:27:40;;;;;;;24.23;12.75;;;3.20;99.90;;;;;;5052682;28;20502;-43
2023/02/10 01:30:09;;;;;;;25.67;12.45;;;3.20;99.90;;;;;;5058214;28;20115;-43
2023/02/10 01:32:34;;;;;;;33.83;12.80;;;3.20;99.90;;;;;;5058465;28;20036;-43
2023/02/10 01:35:00;;;;;;;20.45;13.52;;;3.20;99.90;;;;;;5058584;28;20021;-42
2023/02/10 01:37:25;;;;;;;29.40;13.07;;;3.30;99.90;;;;;;5058285;28;20527;-43
2023/02/10 01:39:54;;;;;;;32.17;14.10;;;3.30;99.90;;;;;;5058284;28;20021;-42
2023/02/10 01:42:19;;;;;;;18.55;12.75;;;3.30;99.90;;;;;;5058286;28;20807;-43
2023/02/10 01:44:45;;;;;;;19.70;13.05;;;3.30;99.90;;;;;;5058952;28;20035;-43
2023/02/10 01:47:11;;;;;;;18.92;12.32;;;3.30;99.90;;;;;;5058732;28;20025;-43
2023/02/10 01:49:44;;;;;;;35.03;12.95;;;3.30;99.90;;;;;;5058892;28;20516;-42
2023/02/10 01:52:15;;;;;;;29.05;13.55;;;3.30;99.90;;;;;;5058421;28;20675;-43
2023/02/10 01:54:45;;;;;;;22.75;12.38;;;3.20;99.90;;;;;;5058734;28;20040;-42
2023/02/10 01:57:11;;;;;;;27.73;12.23;;;3.20;99.90;;;;;;5057929;28;20098;-43
2023/02/10 01:59:38;;;;;;;43.53;11.98;;;3.20;99.90;;;;;;5058501;28;20098;-44
2023/02/10 02:02:06;;;;;;;48.17;13.38;;;3.20;99.90;;;;;;5058567;28;20048;-42
2023/02/10 02:04:40;;;;;;;29.35;13.27;;;3.10;99.90;;;;;;5057231;28;20103;-43
2023/02/10 02:07:06;;;;;;;34.53;13.00;;;3.10;99.90;;;;;;5058266;28;20044;-42
2023/02/10 02:09:32;;;;;;;37.60;14.13;;;3.10;99.90;;;;;;5057577;28;20228;-43
2023/02/10 02:12:31;;;;;;;24.65;13.57;;;3.00;99.90;;;;;;5058416;28;20033;-43
2023/02/10 02:15:10;;;;;;;32.40;12.82;;;3.00;99.90;;;;;;5056905;28;20100;-43
2023/02/10 02:17:36;;;;;;;37.20;13.15;;;3.00;99.90;;;;;;5060950;28;20040;-42
2023/02/10 02:20:41;;;;;;;22.40;13.57;;;3.00;99.90;;;;;;5060973;28;20021;-42
2023/02/10 02:23:33;;;;;;;21.42;12.43;;;2.90;99.90;;;;;;5060822;28;20544;-42
2023/02/10 02:26:20;;;;;;;26.35;12.00;;;2.90;99.90;;;;;;5051401;28;20637;-42
2023/02/10 02:29:10;;;;;;;45.03;13.10;;;2.90;99.90;;;;;;5061058;28;20017;-42
2023/02/10 02:32:14;;;;;;;24.13;12.52;;;2.80;99.90;;;;;;5060868;28;20035;-42
2023/02/10 02:34:55;;;;;;;19.55;12.43;;;2.80;99.90;;;;;;5061419;28;20034;-42
2023/02/10 02:37:27;;;;;;;23.98;12.40;;;2.80;99.90;;;;;;5061016;28;20117;-43
2023/02/10 02:39:55;;;;;;;22.35;12.32;;;2.80;99.90;;;;;;5060936;28;20082;-42
2023/02/10 02:42:26;;;;;;;19.17;12.10;;;2.80;99.90;;;;;;5061051;28;20040;-42
2023/02/10 02:44:58;;;;;;;14.32;12.30;;;2.80;99.90;;;;;;5060058;28;20028;-43
2023/02/10 02:47:53;;;;;;;36.20;13.52;;;2.70;99.90;;;;;;5061092;28;20020;-43
2023/02/10 02:50:21;;;;;;;16.02;12.82;;;2.80;99.90;;;;;;5061186;28;20052;-42
2023/02/10 02:53:28;;;;;;;19.67;12.48;;;2.70;99.90;;;;;;5060248;28;20530;-42
2023/02/10 02:56:03;;;;;;;22.65;13.15;;;2.70;99.90;;;;;;5060508;28;20040;-43
2023/02/10 02:58:53;;;;;;;17.40;12.23;;;2.60;99.90;;;;;;5060929;28;20102;-42
2023/02/10 03:01:43;;;;;;;23.30;12.98;;;2.60;99.90;;;;;;5060302;28;20140;-42
2023/02/10 03:04:12;;;;;;;24.27;12.20;;;2.50;99.90;;;;;;5061115;28;20028;-43
2023/02/10 03:06:41;;;;;;;20.20;13.00;;;2.50;99.90;;;;;;5059117;28;20028;-41
2023/02/10 03:09:06;;;;;;;21.52;13.30;;;2.50;99.90;;;;;;5060660;28;20032;-43
2023/02/10 03:11:32;;;;;;;16.33;12.93;;;2.50;99.90;;;;;;5060751;28;20673;-43
2023/02/10 03:13:57;;;;;;;24.00;12.82;;;2.40;99.90;;;;;;5060358;28;20116;-43
2023/02/10 03:16:23;;;;;;;17.05;13.18;;;2.40;99.90;;;;;;5059804;28;20030;-42
2023/02/10 03:18:48;;;;;;;17.98;13.25;;;2.40;99.90;;;;;;5060381;28;20111;-44
2023/02/10 03:21:14;;;;;;;20.52;14.25;;;2.40;99.90;;;;;;5059692;28;20533;-43
2023/02/10 03:23:39;;;;;;;15.45;13.10;;;2.40;99.90;;;;;;5060292;28;20020;-43
2023/02/10 03:26:05;;;;;;;18.65;13.88;;;2.40;99.90;;;;;;5060098;28;20033;-43
2023/02/10 03:28:31;;;;;;;24.08;14.20;;;2.40;99.90;;;;;;5059550;28;20480;-43
2023/02/10 03:30:56;;;;;;;21.63;14.70;;;2.30;99.90;;;;;;5059377;28;20392;-42
2023/02/10 03:33:22;;;;;;;20.42;13.68;;;2.30;99.90;;;;;;5059723;28;20040;-43
2023/02/10 03:35:49;;;;;;;29.73;14.25;;;2.40;99.90;;;;;;5058903;28;20020;-42
2023/02/10 03:38:15;;;;;;;25.02;15.05;;;2.40;99.90;;;;;;5060166;28;20024;-42
2023/02/10 03:40:41;;;;;;;25.70;13.95;;;2.40;99.90;;;;;;5059741;28;20475;-42
2023/02/10 03:43:07;;;;;;;23.92;14.57;;;2.40;99.90;;;;;;5059073;28;20107;-42
2023/02/10 03:45:32;;;;;;;29.10;15.05;;;2.30;99.90;;;;;;5060357;28;20035;-42
2023/02/10 03:47:59;;;;;;;26.50;14.05;;;2.30;99.90;;;;;;5059604;28;20028;-42
2023/02/10 03:50:25;;;;;;;41.83;14.13;;;2.30;99.90;;;;;;5060406;28;20055;-43
2023/02/10 03:52:51;;;;;;;27.45;14.65;;;2.20;99.90;;;;;;5059938;28;20172;-42
2023/02/10 03:55:19;;;;;;;39.20;16.30;;;2.20;99.90;;;;;;5059408;28;20374;-43
2023/02/10 03:57:45;;;;;;;22.63;15.25;;;2.20;99.90;;;;;;5060137;28;20043;-43
2023/02/10 04:00:12;;;;;;;37.17;15.13;;;2.20;99.90;;;;;;5059470;28;20501;-43
2023/02/10 04:02:37;;;;;;;27.38;14.73;;;2.20;99.90;;;;;;5058365;28;20060;-43
2023/02/10 04:05:03;;;;;;;22.65;14.18;;;2.10;99.90;;;;;;5059215;28;20028;-43
2023/02/10 04:07:35;;;;;;;27.92;14.02;;;2.10;99.90;;;;;;5059119;28;20804;-42
2023/02/10 04:10:00;;;;;;;28.83;15.45;;;2.10;99.90;;;;;;5059144;28;20051;-42
2023/02/10 04:12:26;;;;;;;27.25;15.07;;;2.10;99.90;;;;;;5058885;28;20669;-43
2023/02/10 04:14:51;;;;;;;33.72;16.60;;;2.10;99.90;;;;;;5059196;28;20371;-42
2023/02/10 04:17:17;;;;;;;30.27;15.63;;;2.10;99.90;;;;;;5058723;28;20449;-42
2023/02/10 04:19:45;;;;;;;32.03;16.83;;;2.10;99.90;;;;;;5058386;28;20848;-42
2023/02/10 04:22:11;;;;;;;29.83;17.55;;;2.10;99.90;;;;;;5059273;28;20125;-43
2023/02/10 04:24:39;;;;;;;29.55;16.90;;;2.10;99.90;;;;;;5058780;28;20426;-43
2023/02/10 04:27:05;;;;;;;25.02;16.02;;;2.10;99.90;;;;;;5058933;28;20561;-43
2023/02/10 04:29:31;;;;;;;30.33;15.55;;;2.00;99.90;;;;;;5058898;28;20025;-43
2023/02/10 04:31:57;;;;;;;28.60;14.55;;;2.00;99.90;;;;;;5058197;28;20024;-42
2023/02/10 04:34:22;;;;;;;30.00;14.93;;;2.00;99.90;;;;;;5058586;28;20047;-43
2023/02/10 04:36:48;;;;;;;26.23;14.63;;;2.00;99.90;;;;;;5058596;28;20079;-43
2023/02/10 04:39:13;;;;;;;23.77;15.38;;;1.90;99.90;;;;;;5057746;28;20029;-43
2023/02/10 04:41:42;;;;;;;38.22;14.85;;;1.90;99.90;;;;;;5059132;28;20072;-42
2023/02/10 04:44:07;;;;;;;41.05;14.68;;;1.90;99.90;;;;;;5057885;28;20551;-44
2023/02/10 04:46:33;;;;;;;24.13;14.32;;;1.90;99.90;;;;;;5059383;28;20024;-44
2023/02/10 04:48:59;;;;;;;39.78;14.98;;;1.90;99.90;;;;;;5058999;28;20581;-43
2023/02/10 04:51:24;;;;;;;21.30;14.40;;;1.90;99.90;;;;;;5058595;28;20499;-47
2023/02/10 04:53:50;;;;;;;40.00;14.77;;;1.90;99.90;;;;;;5058489;28;20556;-44
2023/02/10 04:56:15;;;;;;;41.70;15.77;;;1.90;99.90;;;;;;5058928;28;20032;-43
2023/02/10 04:58:42;;;;;;;30.38;14.93;;;1.90;99.90;;;;;;5057696;28;20078;-44
2023/02/10 05:01:08;;;;;;;28.70;14.38;;;1.90;99.90;;;;;;5058705;28;20041;-44
2023/02/10 05:03:36;;;;;;;26.25;14.88;;;1.90;99.90;;;;;;5059163;28;20052;-44
2023/02/10 05:06:10;;;;;;;18.48;14.10;;;1.90;99.90;;;;;;5058307;28;20111;-43
2023/02/10 05:08:40;;;;;;;26.48;14.55;;;2.00;99.90;;;;;;5058809;28;20025;-44
2023/02/10 05:11:06;;;;;;;28.20;14.35;;;2.00;99.90;;;;;;5059187;28;20028;-48
2023/02/10 05:13:32;;;;;;;31.83;14.60;;;1.90;99.90;;;;;;5057721;28;20634;-45
2023/02/10 05:15:58;;;;;;;29.15;14.65;;;1.90;99.90;;;;;;5058174;28;20025;-46
2023/02/10 05:18:23;;;;;;;27.77;13.35;;;1.90;99.90;;;;;;5059209;28;20559;-44
2023/02/10 05:20:49;;;;;;;21.10;15.02;;;1.90;99.90;;;;;;5057521;28;20590;-43
2023/02/10 05:23:14;;;;;;;33.13;15.77;;;1.90;99.90;;;;;;5058635;28;20040;-44
2023/02/10 05:25:43;;;;;;;61.63;16.95;;;1.90;99.90;;;;;;5058229;28;20028;-42
2023/02/10 05:28:11;;;;;;;39.58;16.00;;;1.90;99.90;;;;;;5058135;28;20037;-42
2023/02/10 05:30:37;;;;;;;25.73;14.18;;;1.90;99.90;;;;;;5058177;28;20806;-42
2023/02/10 05:33:02;;;;;;;26.20;14.75;;;1.90;99.90;;;;;;5058977;28;20047;-43
2023/02/10 05:35:28;;;;;;;23.02;15.73;;;1.80;99.90;;;;;;5058667;28;20107;-43
2023/02/10 05:37:53;;;;;;;29.13;15.90;;;1.80;99.90;;;;;;5058723;28;20039;-43
2023/02/10 05:40:19;;;;;;;31.45;15.75;;;1.80;99.90;;;;;;5057873;28;20029;-43
2023/02/10 05:42:45;;;;;;;26.85;15.57;;;1.80;99.90;;;;;;5057965;28;20021;-42
2023/02/10 05:45:10;;;;;;;24.08;15.27;;;1.80;99.90;;;;;;5057887;28;20091;-43
2023/02/10 05:47:36;;;;;;;21.92;13.65;;;1.80;99.90;;;;;;5058139;28;20025;-43
2023/02/10 05:50:01;;;;;;;18.88;13.23;;;1.80;99.90;;;;;;5058068;28;20024;-42
2023/02/10 05:52:27;;;;;;;26.40;13.43;;;1.80;99.90;;;;;;5061739;28;20098;-42
2023/02/10 05:54:55;;;;;;;21.48;13.35;;;1.80;99.90;;;;;;5061227;28;20695;-43
2023/02/10 05:57:21;;;;;;;24.63;13.60;;;1.70;99.90;;;;;;5061504;28;20024;-43
2023/02/10 05:59:46;;;;;;;21.40;14.02;;;1.70;99.90;;;;;;5062149;28;20506;-43
2023/02/10 06:02:12;;;;;;;42.97;15.15;;;1.70;99.90;;;;;;5060222;28;20044;-43
2023/02/10 06:04:37;;;;;;;34.20;13.65;;;1.70;99.90;;;;;;5061579;28;20039;-43
2023/02/10 06:07:03;;;;;;;27.70;14.35;;;1.70;99.90;;;;;;5061555;28;20086;-43
2023/02/10 06:09:29;;;;;;;25.13;15.18;;;1.70;99.90;;;;;;5060653;28;20037;-43
2023/02/10 06:11:54;;;;;;;32.33;15.50;;;1.70;99.90;;;;;;5060588;28;20168;-43
2023/02/10 06:14:20;;;;;;;32.28;17.23;;;1.70;99.90;;;;;;5061657;28;20036;-43
2023/02/10 06:16:46;;;;;;;46.10;17.70;;;1.70;99.90;;;;;;5060706;28;20032;-43
2023/02/10 06:19:17;;;;;;;50.65;16.30;;;1.70;99.90;;;;;;5061187;28;20450;-43
2023/02/10 06:21:43;;;;;;;40.30;17.27;;;1.70;99.90;;;;;;5060859;28;20513;-43
2023/02/10 06:24:09;;;;;;;22.15;16.42;;;1.70;99.90;;;;;;5061203;28;20028;-44
2023/02/10 06:26:35;;;;;;;28.00;17.38;;;1.70;99.90;;;;;;5060512;28;20025;-44
2023/02/10 06:29:01;;;;;;;32.10;16.70;;;1.80;99.90;;;;;;5061459;28;20039;-43
2023/02/10 06:31:26;;;;;;;33.22;16.80;;;1.80;99.90;;;;;;5061030;28;20028;-43
2023/02/10 06:33:52;;;;;;;24.42;15.27;;;1.80;99.90;;;;;;5060757;28;20047;-42
2023/02/10 06:36:18;;;;;;;32.00;17.10;;;1.80;99.90;;;;;;5061245;28;20032;-42
2023/02/10 06:38:44;;;;;;;52.92;17.70;;;1.80;99.90;;;;;;5060737;28;20047;-42
2023/02/10 06:41:09;;;;;;;39.13;16.35;;;1.80;99.90;;;;;;5061575;28;20531;-42
2023/02/10 06:43:35;;;;;;;41.78;17.45;;;1.80;99.90;;;;;;5060645;28;20101;-43
2023/02/10 06:46:00;;;;;;;44.47;16.63;;;1.80;99.90;;;;;;5060578;28;20078;-43
2023/02/10 06:48:26;;;;;;;33.88;17.50;;;1.90;99.90;;;;;;5061118;28;20036;-42
2023/02/10 06:50:52;;;;;;;31.98;16.63;;;1.90;99.90;;;;;;5060439;28;20147;-42
2023/02/10 06:53:20;;;;;;;29.38;16.30;;;1.90;99.90;;;;;;5061570;28;20032;-43
2023/02/10 06:55:52;;;;;;;32.28;15.13;;;1.80;99.90;;;;;;5060843;28;20036;-42
2023/02/10 06:58:17;;;;;;;32.88;16.08;;;1.80;99.90;;;;;;5060130;28;20425;-42
2023/02/10 07:00:43;;;;;;;22.25;15.15;;;1.80;99.90;;;;;;5060640;28;20468;-42
2023/02/10 07:03:10;;;;;;;22.63;15.27;;;1.80;99.90;;;;;;5061055;28;20221;-42
2023/02/10 07:05:36;;;;;;;23.85;16.30;;;1.80;99.90;;;;;;5060737;28;20094;-43
2023/02/10 07:08:03;;;;;;;28.05;17.98;;;1.90;99.90;;;;;;5071792;28;20025;-42
2023/02/10 07:10:30;;;;;;;36.55;17.58;;;1.90;99.90;;;;;;5061834;28;20055;-43
2023/02/10 07:12:56;;;;;;;32.38;19.00;;;1.90;99.90;;;;;;5045144;28;20034;-43
2023/02/10 07:15:22;;;;;;;26.73;18.92;;;2.00;99.90;;;;;;5061462;28;20029;-43
2023/02/10 07:17:50;;;;;;;28.50;18.73;;;2.00;99.90;;;;;;5058161;28;20016;-42
2023/02/10 07:20:17;;;;;;;27.77;18.55;;;2.10;99.90;;;;;;5059930;28;20032;-43
2023/02/10 07:22:42;;;;;;;27.77;17.30;;;2.10;99.90;;;;;;5060869;28;20036;-43
2023/02/10 07:25:08;;;;;;;27.35;18.42;;;2.10;99.90;;;;;;5059826;28;20725;-42
2023/02/10 07:27:33;;;;;;;34.67;22.05;;;2.10;99.90;;;;;;5060102;28;20023;-42
2023/02/10 07:29:59;;;;;;;36.45;21.92;;;2.20;99.90;;;;;;5059557;28;20742;-42
2023/02/10 07:32:24;;;;;;;34.65;22.10;;;2.20;99.90;;;;;;5060177;28;20444;-43
2023/02/10 07:34:51;;;;;;;33.28;20.90;;;2.20;99.90;;;;;;5058568;28;20578;-43
2023/02/10 07:37:22;;;;;;;31.00;20.40;;;2.20;99.90;;;;;;5059986;28;20035;-43
2023/02/10 07:39:48;;;;;;;34.63;21.55;;;2.20;99.90;;;;;;5058810;28;20033;-43
2023/02/10 07:42:14;;;;;;;42.83;23.73;;;2.30;99.90;;;;;;5059135;28;20035;-43
2023/02/10 07:44:39;;;;;;;33.30;21.98;;;2.30;99.90;;;;;;5058990;28;20115;-42
2023/02/10 07:47:10;;;;;;;38.20;22.05;;;2.30;99.90;;;;;;5058820;28;20032;-42
2023/02/10 07:49:35;;;;;;;43.92;25.60;;;2.30;99.90;;;;;;5058763;28;20033;-43
2023/02/10 07:52:01;;;;;;;38.45;24.73;;;2.30;99.90;;;;;;5059121;28;20036;-43
2023/02/10 07:54:27;;;;;;;44.58;24.05;;;2.30;99.90;;;;;;5057954;28;20589;-43
2023/02/10 07:56:56;;;;;;;47.47;23.45;;;2.30;99.90;;;;;;5058922;28;20592;-43
2023/02/10 07:59:22;;;;;;;47.53;23.00;;;2.30;99.90;;;;;;5059538;28;20024;-43
2023/02/10 08:01:47;;;;;;;34.05;22.13;;;2.30;99.90;;;;;;5058006;28;20048;-44
2023/02/10 08:04:13;;;;;;;44.40;20.42;;;2.30;99.90;;;;;;5057597;28;20471;-44
2023/02/10 08:06:40;;;;;;;38.58;21.15;;;2.30;99.90;;;;;;5058753;28;20131;-43
2023/02/10 08:09:06;;;;;;;35.15;21.55;;;2.30;99.90;;;;;;5058750;28;20028;-43
2023/02/10 08:11:32;;;;;;;28.85;19.77;;;2.30;99.90;;;;;;5058668;28;20472;-43
2023/02/10 08:13:58;;;;;;;36.97;22.40;;;2.30;99.90;;;;;;5058739;28;20629;-43
2023/02/10 08:16:24;;;;;;;44.97;23.27;;;2.30;99.90;;;;;;5059168;28;20032;-42
2023/02/10 08:18:49;;;;;;;33.75;20.90;;;2.30;99.90;;;;;;5059728;28;20036;-44
2023/02/10 08:21:15;;;;;;;36.33;23.13;;;2.30;99.90;;;;;;5059715;28;20479;-43
2023/02/10 08:23:43;;;;;;;38.42;23.20;;;2.30;99.90;;;;;;5058159;28;20117;-44
2023/02/10 08:26:11;;;;;;;37.60;22.85;;;2.30;99.90;;;;;;5059200;28;20032;-43
2023/02/10 08:28:39;;;;;;;36.22;23.60;;;2.30;99.90;;;;;;5059286;28;20039;-43
2023/02/10 08:31:06;;;;;;;37.10;23.77;;;2.30;99.90;;;;;;5058791;28;20024;-43
2023/02/10 08:33:36;;;;;;;41.35;21.95;;;2.30;99.90;;;;;;5059272;28;20048;-44
2023/02/10 08:36:07;;;;;;;40.72;24.35;;;2.30;99.90;;;;;;5057840;28;20726;-43
2023/02/10 08:38:33;;;;;;;42.17;25.50;;;2.30;99.90;;;;;;5058318;28;20479;-43
2023/02/10 08:40:59;;;;;;;41.33;22.83;;;2.30;99.90;;;;;;5058667;28;20032;-43
2023/02/10 08:43:25;;;;;;;35.00;22.50;;;2.40;99.90;;;;;;5059912;28;20023;-44
2023/02/10 08:45:50;;;;;;;34.22;22.13;;;2.40;99.90;;;;;;5058657;28;20485;-44
2023/02/10 08:48:17;;;;;;;38.50;22.95;;;2.40;99.90;;;;;;5059072;28;20027;-43
2023/02/10 08:50:43;;;;;;;33.17;21.48;;;2.40;99.90;;;;;;5058171;28;20055;-43
2023/02/10 08:53:09;;;;;;;34.90;21.00;;;2.50;99.90;;;;;;5052727;28;20056;-43
2023/02/10 08:55:35;;;;;;;39.03;24.20;;;2.40;99.90;;;;;;5057937;28;20029;-42
2023/02/10 08:58:01;;;;;;;36.10;22.02;;;2.50;99.90;;;;;;5058419;28;20038;-43
2023/02/10 09:00:26;;;;;;;36.20;22.83;;;2.50;99.90;;;;;;5058503;28;20559;-43
2023/02/10 09:02:52;;;;;;;41.22;23.65;;;2.50;99.90;;;;;;5055224;28;20058;-43
2023/02/10 09:05:27;;;;;;;43.03;26.27;;;2.50;99.90;;;;;;5056628;28;20486;-43
2023/02/10 09:07:52;;;;;;;37.20;22.38;;;2.50;99.90;;;;;;5057531;28;20840;-43
2023/02/10 09:10:18;;;;;;;36.00;21.92;;;2.50;99.90;;;;;;5058862;28;20128;-43
2023/02/10 09:12:48;;;;;;;35.47;21.20;;;2.50;99.90;;;;;;5056855;28;20025;-43
2023/02/10 09:15:13;;;;;;;36.13;22.33;;;2.60;99.90;;;;;;5059224;28;20028;-43
2023/02/10 09:17:39;;;;;;;37.22;21.77;;;2.60;99.90;;;;;;5058295;28;20043;-42
2023/02/10 09:20:05;;;;;;;37.20;21.90;;;2.60;99.90;;;;;;5058058;28;20139;-43
2023/02/10 09:22:31;;;;;;;32.35;20.20;;;2.70;99.90;;;;;;5058754;28;20029;-43
2023/02/10 09:24:59;;;;;;;33.78;20.55;;;2.80;99.90;;;;;;5060206;28;20472;-43
2023/02/10 09:27:25;;;;;;;35.30;21.70;;;2.80;99.90;;;;;;5062237;28;20600;-43
2023/02/10 09:29:50;;;;;;;28.85;18.55;;;2.90;99.90;;;;;;5062288;28;20029;-43
2023/02/10 09:32:16;;;;;;;37.63;21.55;;;3.00;99.90;;;;;;5062435;28;20032;-42
2023/02/10 09:34:42;;;;;;;33.20;19.95;;;3.00;99.90;;;;;;5061778;28;20066;-42
2023/02/10 09:37:08;;;;;;;39.38;21.85;;;3.10;99.90;;;;;;5062885;28;20130;-43
2023/02/10 09:39:33;;;;;;;38.33;22.20;;;3.10;99.90;;;;;;5061394;28;20143;-43
2023/02/10 09:42:08;;;;;;;37.70;21.92;;;3.10;99.90;;;;;;5062471;28;20515;-43
2023/02/10 09:44:36;;;;;;;36.05;21.23;;;3.10;99.90;;;;;;5061850;28;20028;-44
2023/02/10 09:47:23;;;;;;;40.38;21.95;;;3.20;99.90;;;;;;5062116;28;20119;-46
2023/02/10 09:50:04;;;;;;;40.33;22.05;;;3.20;99.90;;;;;;5060925;28;20161;-43
2023/02/10 09:52:43;;;;;;;40.70;22.00;;;3.30;99.90;;;;;;5061911;28;20116;-43
2023/02/10 09:55:16;;;;;;;40.65;23.83;;;3.30;99.90;;;;;;5061122;28;20480;-43
2023/02/10 09:57:45;;;;;;;40.00;21.80;;;3.30;99.90;;;;;;5061726;28;20370;-43
2023/02/10 10:00:34;;;;;;;37.70;21.48;;;3.30;99.90;;;;;;5061970;28;20192;-43
2023/02/10 10:03:05;;;;;;;40.88;23.27;;;3.50;99.90;;;;;;5021515;28;20483;-43
2023/02/10 10:05:39;;;;;;;41.83;23.23;;;3.60;99.90;;;;;;5021985;28;20180;-43
2023/02/10 10:08:24;;;;;;;40.35;21.70;;;3.70;99.90;;;;;;5021591;28;20102;-43
2023/02/10 10:10:50;;;;;;;35.30;20.40;;;3.80;99.90;;;;;;5020682;28;20534;-43
2023/02/10 10:13:28;;;;;;;37.22;21.33;;;3.90;99.90;;;;;;5022112;28;20211;-43
2023/02/10 10:16:30;;;;;;;40.92;21.05;;;3.90;99.90;;;;;;5019720;28;20029;-43
2023/02/10 10:18:56;;;;;;;40.83;21.15;;;3.80;99.90;;;;;;5021413;28;20129;-43
2023/02/10 10:21:43;;;;;;;40.42;21.33;;;3.80;99.90;;;;;;5022243;28;20045;-43
2023/02/10 10:24:27;;;;;;;33.92;20.13;;;3.80;99.90;;;;;;5021464;28;20025;-43
2023/02/10 10:27:22;;;;;;;40.60;22.52;;;3.90;99.90;;;;;;5010610;28;20142;-42
2023/02/10 10:29:58;;;;;;;40.75;22.85;;;3.90;99.90;;;;;;5020869;28;20026;-43
2023/02/10 10:32:42;;;;;;;43.15;23.80;;;4.00;99.90;;;;;;5022324;28;20409;-42
2023/02/10 10:35:19;;;;;;;41.65;23.33;;;4.00;99.90;;;;;;5021464;28;20049;-43
2023/02/10 10:37:45;;;;;;;41.08;22.58;;;4.00;99.90;;;;;;5019882;28;20110;-43
2023/02/10 10:40:19;;;;;;;46.25;23.98;;;4.10;99.90;;;;;;5021731;28;20037;-44
2023/02/10 10:42:50;;;;;;;49.20;26.05;;;4.10;99.90;;;;;;5020398;28;20064;-43
2023/02/10 10:45:32;;;;;;;44.17;23.42;;;4.20;99.90;;;;;;5020925;28;20028;-43
2023/02/10 10:48:00;;;;;;;37.83;21.38;;;4.20;99.90;;;;;;5021428;28;20141;-43
2023/02/10 10:50:32;;;;;;;44.42;22.88;;;4.30;99.90;;;;;;5021167;28;20028;-44
2023/02/10 10:53:01;;;;;;;42.92;21.95;;;4.40;99.90;;;;;;5020785;28;20029;-42
2023/02/10 10:55:43;;;;;;;41.97;21.77;;;4.40;99.90;;;;;;5021189;28;20022;-42
2023/02/10 10:58:38;;;;;;;38.08;19.83;;;4.50;99.90;;;;;;5011714;28;20030;-43
2023/02/10 11:01:05;;;;;;;38.00;21.45;;;4.60;99.90;;;;;;5030115;28;20033;-43
2023/02/10 11:03:31;;;;;;;41.10;22.02;;;4.60;99.90;;;;;;5060504;28;20474;-43
2023/02/10 11:06:05;;;;;;;38.85;19.65;;;4.60;99.90;;;;;;5059189;28;20027;-43
2023/02/10 11:08:42;;;;;;;39.28;21.17;;;4.70;99.90;;;;;;5060477;28;20056;-43
2023/02/10 11:11:17;;;;;;;43.90;22.63;;;4.80;99.90;;;;;;5059990;28;20032;-43
2023/02/10 11:13:56;;;;;;;39.17;20.80;;;4.80;99.90;;;;;;5060044;28;20068;-43
2023/02/10 11:16:21;;;;;;;39.03;20.42;;;4.90;99.90;;;;;;5061242;28;20024;-43
2023/02/10 11:19:05;;;;;;;42.03;21.77;;;4.90;99.90;;;;;;5059074;28;20490;-43
2023/02/10 11:21:36;;;;;;;46.50;23.15;;;5.00;99.90;;;;;;5060258;28;20059;-43
2023/02/10 11:24:02;;;;;;;42.55;21.42;;;5.00;99.90;;;;;;5060106;28;20043;-44
2023/02/10 11:26:28;;;;;;;45.95;23.83;;;5.00;99.90;;;;;;5059783;28;20016;-43
2023/02/10 11:28:54;;;;;;;47.38;22.77;;;5.10;99.90;;;;;;5059946;28;20027;-43
2023/02/10 11:31:36;;;;;;;40.63;20.52;;;5.10;99.90;;;;;;5061180;28;20021;-42
2023/02/10 11:34:15;;;;;;;41.60;21.52;;;5.10;99.90;;;;;;5058699;28;20033;-43
2023/02/10 11:36:42;;;;;;;43.42;21.33;;;5.20;99.90;;;;;;5056718;28;20711;-43
2023/02/10 11:39:36;;;;;;;40.05;20.83;;;5.30;99.90;;;;;;5058958;28;20468;-42
2023/02/10 11:42:15;;;;;;;47.38;21.60;;;5.30;99.90;;;;;;5059657;28;20040;-43
2023/02/10 11:44:40;;;;;;;38.60;19.48;;;5.40;99.90;;;;;;5059085;28;20101;-43
2023/02/10 11:47:16;;;;;;;39.92;20.13;;;5.50;99.90;;;;;;5058816;28;20028;-44
2023/02/10 11:50:00;;;;;;;36.80;18.77;;;5.60;99.90;;;;;;5049078;28;20048;-44
2023/02/10 11:52:29;;;;;;;37.30;18.38;;;5.60;99.90;;;;;;5059354;28;20531;-43
2023/02/10 11:54:56;;;;;;;36.50;17.80;;;5.70;99.90;;;;;;5058240;28;20550;-43
2023/02/10 12:00:48;;;;;;;40.83;19.77;;;5.90;99.90;;;;;;5054248;28;20803;-43
2023/02/10 12:03:28;;;;;;;35.67;18.27;;;6.00;99.90;;;;;;5059694;28;20157;-44
2023/02/10 12:06:22;;;;;;;37.47;18.63;;;6.10;99.90;;;;;;5059234;28;20071;-44
2023/02/10 12:09:06;;;;;;;;;;;6.30;99.90;;;;;;5059313;28;20114;-43
2023/02/10 12:11:49;;;;;;;35.35;17.25;;;6.40;99.90;;;;;;5059842;28;19919;-43
2023/02/10 12:14:36;;;;;;;41.20;18.98;;;6.40;99.90;;;;;;5058505;28;20024;-44
2023/02/10 12:17:17;;;;;;;37.67;18.35;;;6.50;99.90;;;;;;5038861;28;20877;-43
2023/02/10 12:20:01;;;;;;;41.42;19.13;;;6.60;99.90;;;;;;5054652;28;20032;-44
2023/02/10 12:22:57;;;;;;;36.13;17.17;;;6.60;99.90;;;;;;5057383;28;20166;-43
2023/02/10 12:25:31;;;;;;;33.65;16.48;;;6.70;99.90;;;;;;5055210;28;20812;-43
2023/02/10 12:28:07;;;;;;;32.08;16.50;;;6.80;99.90;;;;;;5058478;28;20040;-43
2023/02/10 12:30:54;;;;;;;31.20;16.42;;;6.80;99.90;;;;;;5055483;28;20035;-42
2023/02/10 12:33:57;;;;;;;37.22;17.33;;;6.80;99.90;;;;;;5058678;28;20373;-42
2023/02/10 12:36:58;;;;;;;35.92;16.58;;;6.80;99.90;;;;;;5049042;28;20040;-43
2023/02/10 12:39:38;;;;;;;38.67;17.35;;;6.90;99.90;;;;;;5058351;28;20899;-43
2023/02/10 12:42:16;;;;;;;33.88;16.23;;;7.00;99.90;;;;;;5058480;28;20028;-42
2023/02/10 12:44:52;;;;;;;34.00;16.42;;;7.00;99.90;;;;;;5058449;28;20028;-43
2023/02/10 12:47:26;;;;;;;32.67;16.55;;;7.00;99.90;;;;;;5058861;28;20074;-43
2023/02/10 12:50:23;;;;;;;33.58;16.20;;;7.10;99.90;;;;;;5057330;28;20467;-44
2023/02/10 12:53:01;;;;;;;30.73;15.82;;;7.20;99.90;;;;;;5058229;28;20132;-42
2023/02/10 12:55:49;;;;;;;33.90;16.23;;;7.30;99.90;;;;;;5059098;28;20029;-42
2023/02/10 12:58:21;;;;;;;33.65;15.25;;;7.30;99.90;;;;;;5038941;28;20052;-42
2023/02/10 13:01:11;;;;;;;31.60;14.65;;;7.40;99.90;;;;;;5053423;28;20174;-42